Flight Number: EUR2373 Duration: 2:15
Departure: Copenhagen Kastrup (EKCH) at 18:15 Distance: 823 Nm
Arrival: Bordeaux-Merignac (LFBD) at 20:30 Equipment: A321

Weather Information
Koebenhavn / Kastrup, Denmark (EKCH) 55-37N 012-39E 5M Sep 21, 2017 - 05:20 PM EDT / 2017.09.21 2120 UTC
Wind: from the ENE (060 degrees) at 7 MPH (6 KT):0
Visibility: greater than 7 mile(s):0
Sky conditions: mostly clear Temperature: 53 F (12 C) Dew Point: 48 F (9 C) Relative Humidity: 81% Pressure (altimeter): 30.18 in. Hg (1022 hPa)
ob: EKCH 212120Z 06006KT 9999 FEW021 12/09 Q1022 NOSIG cycle: 21
Sunrise: 04:58 Sunset: 17:06 (UTC)

Bordeaux / Merignac, France (LFBD) 44-50N 000-42W 61M Sep 21, 2017 - 05:00 PM EDT / 2017.09.21 2100 UTC
Wind: Variable at 1 MPH (1 KT):0
Visibility: greater than 7 mile(s):0 Temperature: 59 F (15 C) Dew Point: 51 F (11 C) Relative Humidity: 76% Pressure (altimeter): 30.12 in. Hg (1020 hPa)
ob: LFBD 212100Z AUTO VRB01KT CAVOK 15/11 Q1020 BECMG BKN012 BKN035 cycle: 21
Sunrise: 05:52 Sunset: 17:58 (UTC)

TAF:2017/09/21 18:21 TAF TAF LFBD 211700Z 2118/2224 34006KT CAVOK BECMG 2121/2123 BKN012 BKN035 TEMPO 2123/2208 BKN006 BKN020 BECMG 2208/2210 SCT020 TX22/2216Z TN13/2205Z

Previous Pireps for this route
Date Aircraft Flight time Fuel used Landing rate On time
2015-03-31A32102.2915195-159Yes
2015-05-07A32102.2814305-39Yes
2016-04-30A32102.1913634-303Yes
(pireps marked green are flown by you)

Route map